Tiempo atmosférico en la estación meteorológica de Carmona, Sevilla (50 m.)

Fecha
DESCASC
Temp. máxima en grados centígrados (hora)
DESCASC
Temp. mínima en grados centígrados (hora)
DESCASC
Temp. media en grados centígrados
DESCASC
Racha de viento máxima en m/sg (hora)
DESCASC
Velocidad máxima media en intervalos de 10 minutos(hora)
DESCASC
Precipitaciones diarias en mm
DESCASC
Precipitaciones de 00:00 a 06:00 en mm
DESCASC
Precipitaciones de 06:00 a 12:00 en mm
DESCASC
Precipitaciones de 12:00 a 18:00 en mm
DESCASC
Precipitaciones de 18:00 a 24:00 en mm
DESCASC
10-12-2017 17.7 (16:00) 5.5 (06:00) 11.6 11.11 (23:50) 7.22 (23:10) 0 0 0 0 0
09-12-2017 16.2 (16:50) 5.6 (07:10) 10.9 2.78 (04:00) 2.22 (18:10) 0 0 0 0 0
08-12-2017 17.4 (16:00) 2.6 (08:10) 10 5.56 (10:30) 3.61 (10:20) 0 0 0 0 0
07-12-2017 15.6 (15:40) 2 (00:00) 8.8 7.78 (12:00) 5.56 (12:00) 0 0 0 0 0
06-12-2017 15.6 (16:10) 1.9 (00:00) 8.8 9.17 (11:00) 6.39 (11:00) 0 0 0 0 0
05-12-2017 15.2 (15:30) 2.5 (00:00) 8.8 10 (11:00) 7.22 (11:10) 0 0 0 0 0
04-12-2017 14 (16:00) -0.2 (00:00) 6.9 11.39 (13:00) 7.78 (13:00) 0 0 0 0 0
03-12-2017 12.4 (15:50) 0.5 (00:00) 6.4 8.89 (13:50) 6.11 (14:20) 0 0 0 0 0
02-12-2017 13.1 (15:40) 1.2 (00:00) 7.2 7.22 (12:40) 5 (12:30) 0 0 0 0 0
01-12-2017 15.6 (16:10) 1.2 (00:00) 8.4 5 (14:20) 3.33 (18:20) 0 0 0 0 0
30-11-2017 16 (15:20) 5.5 (00:00) 10.8 9.17 (12:10) 5.28 (12:50) 0 0 0 0 0
29-11-2017 19.9 (15:50) 9.3 (00:00) 14.6 8.61 (00:30) 4.72 (00:30) 9.8 9.6 0.2 0 0
28-11-2017 17.5 (15:30) 11.3 (00:00) 14.4 7.22 (10:40) 5 (10:40) 10.6 0.8 0.2 0.2 9.4
27-11-2017 18.8 (15:50) 9.8 (00:00) 14.3 7.78 (06:30) 5 (06:30) 0 0 0 0 0
26-11-2017 21.1 (15:20) 10.1 (00:00) 15.6 10.83 (12:10) 7.22 (12:20) 0 0 0 0 0
25-11-2017 20.6 (16:20) 7.2 (00:00) 13.9 5.28 (11:00) 3.89 (07:40) 0 0 0 0 0
24-11-2017 24.8 (16:10) 6.8 (00:00) 15.8 5.83 (10:50) 3.89 (11:50) 0 0 0 0 0
23-11-2017 22.4 (16:20) 6.8 (00:00) 14.6 7.78 (10:10) 5 (11:30) 0 0 0 0 0
22-11-2017 22.6 (16:30) 4.4 (00:00) 13.5 7.78 (11:30) 5.56 (11:20) 0 0 0 0 0
21-11-2017 23.7 (17:20) 5.4 (00:00) 14.6 8.61 (12:50) 5.56 (11:30) 0 0 0 0 0
20-11-2017 23.2 (16:10) 7.1 (00:00) 15.2 10.28 (12:20) 6.67 (12:20) 0 0 0 0 0
19-11-2017 22.2 (16:20) 5.8 (00:00) 14 8.89 (11:50) 6.39 (12:10) 0 0 0 0 0
18-11-2017 22 (17:00) 5.3 (00:00) 13.7 7.22 (11:40) 5 (11:40) 0 0 0 0 0
17-11-2017 22.7 (17:00) 5 (00:00) 13.9 7.5 (11:40) 5 (11:20) 0 0 0 0 0
16-11-2017 21.7 (16:10) 5.1 (00:00) 13.4 7.22 (11:00) 4.72 (11:10) 0 0 0 0 0
15-11-2017 20.4 (15:50) 6.3 (00:00) 13.3 7.78 (11:20) 5.56 (11:20) 0 0 0 0 0

Gráficas

Temp. máximas Temp. mínimas Temp. medias Precipitaciones Rachas de viento máximas Velocidades máximas media en intervalos de 10 minutos

Datos horarios

Fecha y hora oficial Temperatura (ºC) Velocidad del viento (km/h) Dirección del viento Racha (km/h) Dirección de racha Precipitación (mm) Presión (hPa) Tendencia (hPa) Humedad (%)
2017-12-14 23:00:00 -- -- -- -- -- -- -- -- --
2017-12-14 22:00:00 -- -- -- -- -- -- -- -- --
2017-12-14 21:00:00 -- -- -- -- -- -- -- -- --
2017-12-14 20:00:00 -- -- -- -- -- -- -- -- --
2017-12-14 19:00:00 -- -- -- -- -- -- -- -- --
2017-12-14 18:00:00 -- -- -- -- -- -- -- -- --
2017-12-14 17:00:00 -- -- -- -- -- -- -- -- --
2017-12-14 16:00:00 -- -- -- -- -- -- -- -- --
2017-12-14 15:00:00 -- -- -- -- -- -- -- -- --
2017-12-14 14:00:00 -- -- -- -- -- -- -- -- --
2017-12-14 13:00:00 -- -- -- -- -- -- -- -- --
2017-12-14 12:00:00 -- -- -- -- -- -- -- -- --
2017-12-14 11:00:00 -- -- -- -- -- -- -- -- --
2017-12-14 10:00:00 -- -- -- -- -- -- -- -- --
2017-12-14 09:00:00 -- -- -- -- -- -- -- -- --
2017-12-14 08:00:00 -- -- -- -- -- -- -- -- --
2017-12-14 07:00:00 3.3 9 Este 10 Este 0 -- -- 92
2017-12-14 06:00:00 3.3 6 Este 10 Este 0 -- -- 91
2017-12-14 05:00:00 3.5 7 Este 13 Este 0 -- -- 91
2017-12-14 04:00:00 3.9 10 Este 13 Este 0 -- -- 91
2017-12-14 03:00:00 3.8 8 Nordeste 10 Nordeste 0 -- -- 91
2017-12-14 02:00:00 4.5 7 Este 8 Este 0 -- -- 90
2017-12-14 01:00:00 4.6 4 Este 8 Nordeste 0 -- -- 89
2017-12-14 00:00:00 4.9 5 Nordeste 7 Nordeste 0 -- -- 87
2017-12-13 23:00:00 5.8 0 Calma 4 Sudeste 0 -- -- 86
2017-12-13 22:00:00 6.4 3 Este 8 Nordeste 0 -- -- 87
2017-12-13 21:00:00 6.5 4 Noroeste 10 Sudeste 0 -- -- 86
2017-12-13 20:00:00 8.1 6 Este 8 Este 0 -- -- 82
2017-12-13 19:00:00 10 2 Nordeste 3 Norte 0 -- -- 77
2017-12-13 18:00:00 12.8 0 Calma 9 Sudeste 0 -- -- 62
2017-12-13 17:00:00 14 6 Este 13 Sudeste 0 -- -- 55
2017-12-13 16:00:00 14.1 9 Este 14 Este 0 -- -- 55
2017-12-13 15:00:00 13.3 11 Este 20 Este 0 -- -- 53
2017-12-13 14:00:00 12.5 14 Este 25 Este 0 -- -- 55
2017-12-13 13:00:00 10.8 15 Este 25 Este 0 -- -- 64
2017-12-13 12:00:00 9.1 19 Este 30 Este 0 -- -- 67
2017-12-13 11:00:00 6.5 14 Este 21 Este 0 -- -- 77
2017-12-13 10:00:00 4.4 10 Este 15 Este 0 -- -- 84
2017-12-13 09:00:00 2.6 9 Nordeste 15 Este 0 -- -- 89
2017-12-13 08:00:00 1.9 9 Este 14 Este 0 -- -- 89
2017-12-13 07:00:00 2.1 9 Nordeste 10 Nordeste 0 -- -- 89
2017-12-13 06:00:00 2.6 8 Este 13 Nordeste 0 -- -- 89
2017-12-13 05:00:00 2.7 8 Este 12 Este 0 -- -- 89
2017-12-13 04:00:00 3 5 Este 12 Nordeste 0 -- -- 88
2017-12-13 03:00:00 3.2 9 Este 10 Este 0 -- -- 88
2017-12-13 02:00:00 3.5 3 Nordeste 6 Nordeste 0 -- -- 86
2017-12-13 01:00:00 4.3 6 Nordeste 9 Norte 0 -- -- 84
2017-12-13 00:00:00 5.3 5 Norte 10 Norte 0 -- -- 79
2017-12-12 23:00:00 5.9 7 Nordeste 9 Norte 0 -- -- 76
2017-12-12 22:00:00 6.3 6 Nordeste 12 Nordeste 0 -- -- 76
2017-12-12 21:00:00 7.1 6 Nordeste 11 Norte 0 -- -- 71
2017-12-12 20:00:00 8.6 8 Norte 12 Norte 0 -- -- 63
2017-12-12 19:00:00 9.4 8 Noroeste 10 Norte 0 -- -- 71
2017-12-12 18:00:00 12.2 5 Sudeste 10 Sur 0 -- -- 63
2017-12-12 17:00:00 14.8 2 Sur 6 Sur 0 -- -- 45
2017-12-12 16:00:00 15 0 Calma 10 Sudeste 0 -- -- 42
2017-12-12 15:00:00 14.4 5 Sur 10 Sur 0 -- -- 45
2017-12-12 14:00:00 14.3 2 Sudeste 11 Sudeste 0 -- -- 43
2017-12-12 13:00:00 13.2 3 Este 9 Nordeste 0 -- -- 49
2017-12-12 12:00:00 11.2 4 Norte 13 Norte 0 -- -- 56
2017-12-12 11:00:00 9.5 8 Norte 12 Norte 0 -- -- 64
2017-12-12 10:00:00 7.6 5 Nordeste 11 Noroeste 0 -- -- 70
2017-12-12 09:00:00 4.3 8 Norte 13 Norte 0 -- -- 81
2017-12-12 08:00:00 4.4 7 Nordeste 13 Nordeste 0 -- -- 79
2017-12-12 07:00:00 4.6 4 Nordeste 9 Noroeste 0 -- -- 78
2017-12-12 06:00:00 4.8 5 Norte 16 Norte 0 -- -- 78
2017-12-12 05:00:00 5 6 Noroeste 14 Noroeste 0 -- -- 79
2017-12-12 04:00:00 5.8 4 Norte 11 Noroeste 0 -- -- 79
2017-12-12 03:00:00 6.6 7 Noroeste 15 Noroeste 0 -- -- 81
2017-12-12 02:00:00 6.3 0 Calma 12 Norte 0 -- -- 84
2017-12-12 01:00:00 7.4 6 Sudoeste 14 Oeste 0 -- -- 82
2017-12-12 00:00:00 7.5 8 Oeste 19 Oeste 0 -- -- 83
2017-12-11 23:00:00 7.7 12 Oeste 19 Oeste 0 -- -- 84
2017-12-11 22:00:00 8.2 13 Oeste 19 Oeste 0 -- -- 85
2017-12-11 21:00:00 9.1 5 Sudoeste 25 Oeste 0.8 -- -- 85
2017-12-11 20:00:00 10.2 13 Oeste 30 Noroeste 1 -- -- 79
2017-12-11 19:00:00 11.4 15 Sudoeste 26 Oeste 0 -- -- 69
2017-12-11 18:00:00 12.8 14 Oeste 27 Oeste 0 -- -- 62
2017-12-11 17:00:00 14 20 Oeste 30 Oeste 0 -- -- 54
2017-12-11 16:00:00 14.2 17 Oeste 26 Oeste 0 -- -- 52
2017-12-11 15:00:00 14.4 17 Oeste 26 Oeste 0 -- -- 57
2017-12-11 14:00:00 12.2 19 Oeste 32 Sudoeste 0 -- -- 75
2017-12-11 13:00:00 11.2 20 Sudoeste 28 Sudoeste 0 -- -- 80
2017-12-11 12:00:00 9.9 17 Sudoeste 26 Oeste 0 -- -- 87
2017-12-11 11:00:00 9.6 11 Sudoeste 21 Sudoeste 0 -- -- 92
2017-12-11 10:00:00 9.2 14 Sudoeste 23 Sudoeste 0 -- -- 92
2017-12-11 09:00:00 8.9 8 Sudoeste 17 Oeste 1.2 -- -- 92
2017-12-11 08:00:00 8.8 10 Oeste 45 Noroeste 3.2 -- -- 93
2017-12-11 07:00:00 9.9 31 Noroeste 52 Norte 4.4 -- -- 89
2017-12-11 06:00:00 12.4 37 Noroeste 65 Sudoeste 7.8 -- -- 90
2017-12-11 05:00:00 15.1 39 Sudoeste 68 Sudoeste 2.4 -- -- 89
2017-12-11 04:00:00 16 44 Sudoeste 67 Sudoeste 0.4 -- -- 80
2017-12-11 03:00:00 16.5 40 Sudoeste 63 Sudoeste 0 -- -- 76
2017-12-11 02:00:00 16.5 32 Sudoeste 50 Sudoeste 0 -- -- 75
2017-12-11 01:00:00 16.3 32 Sudoeste 49 Sudoeste 0 -- -- 77
2017-12-11 00:00:00 16 25 Sudoeste 40 Sudoeste 0 -- -- 82
2017-12-10 23:00:00 15.9 25 Oeste 37 Sudoeste 0 -- -- 83
2017-12-10 22:00:00 15.5 20 Sudoeste 37 Sudoeste 0 -- -- 83
2017-12-10 21:00:00 15.4 21 Sudoeste 32 Sudoeste 0 -- -- 80
2017-12-10 20:00:00 15.5 19 Sudoeste 32 Oeste 0 -- -- 77
2017-12-10 19:00:00 15.7 15 Sudoeste 26 Sudoeste 0 -- -- 75
2017-12-10 18:00:00 16.1 15 Oeste 28 Sudoeste 0 -- -- 72
2017-12-10 17:00:00 17.3 19 Sudoeste 32 Sudoeste 0 -- -- 64
2017-12-10 16:00:00 17.7 18 Sudoeste 35 Sudoeste 0 -- -- 66
2017-12-10 15:00:00 16.8 10 Sudoeste 23 Sudoeste 0 -- -- 70
2017-12-10 14:00:00 15.2 8 Oeste 17 Sudoeste 0 -- -- 80
2017-12-10 13:00:00 13.2 10 Oeste 14 Oeste 0 -- -- 94
2017-12-10 12:00:00 11.5 5 Sur 9 Sur 0 -- -- 95
2017-12-10 11:00:00 10.4 6 Oeste 9 Oeste 0 -- -- 95
2017-12-10 10:00:00 8 0 Calma 5 Norte 0 -- -- 94
2017-12-10 09:00:00 7.2 2 Oeste 6 Sudoeste 0 -- -- 94
2017-12-10 08:00:00 6.6 0 Calma 6 Sur 0 -- -- 94
2017-12-10 07:00:00 6.3 3 Este 5 Norte 0 -- -- 94
2017-12-10 06:00:00 5.5 3 Norte 9 Noroeste 0 -- -- 93
2017-12-10 05:00:00 7 5 Sur 9 Sudeste 0 -- -- 93
2017-12-10 04:00:00 6.3 3 Este 6 Este 0 -- -- 93
2017-12-10 03:00:00 6.9 0 Calma 8 Sudeste 0 -- -- 92
2017-12-10 02:00:00 7.5 3 Este 7 Sur 0 -- -- 91
2017-12-10 01:00:00 8.1 2 Norte 8 Sudeste 0 -- -- 90
2017-12-10 00:00:00 8.2 3 Sudeste 9 Sudeste 0 -- -- 90
2017-12-09 23:00:00 8.9 3 Sudeste 5 Norte 0 -- -- 89
2017-12-09 22:00:00 9.6 4 Sur 8 Este 0 -- -- 88
2017-12-09 21:00:00 10.3 6 Nordeste 8 Este 0 -- -- 85
2017-12-09 20:00:00 12.2 3 Este 5 Sur 0 -- -- 81
2017-12-09 19:00:00 13.1 3 Sudeste 10 Nordeste 0 -- -- 79
2017-12-09 18:00:00 14.5 4 Nordeste 8 Nordeste 0 -- -- 73
2017-12-09 17:00:00 16.1 0 Calma 5 Oeste 0 -- -- 74
2017-12-09 16:00:00 15.9 6 Sudoeste 10 Oeste 0 -- -- 73
2017-12-09 15:00:00 14.9 5 Oeste 9 Oeste 0 -- -- 73
2017-12-09 14:00:00 13.5 2 Oeste 6 Noroeste 0 -- -- 73
2017-12-09 13:00:00 11.9 4 Este 10 Este 0 -- -- 74
2017-12-09 12:00:00 10.6 5 Este 9 Nordeste 0 -- -- 76
2017-12-09 11:00:00 9 4 Nordeste 6 Nordeste 0 -- -- 80
2017-12-09 10:00:00 7.4 2 Nordeste 6 Norte 0 -- -- 88
2017-12-09 09:00:00 6.4 3 Sudeste 8 Sudeste 0 -- -- 90
2017-12-09 08:00:00 5.6 4 Sudeste 9 Nordeste 0 -- -- 88
2017-12-09 07:00:00 5.7 2 Noroeste 5 Noroeste 0 -- -- 87
2017-12-09 06:00:00 6.9 3 Oeste 7 Sudoeste 0 -- -- 85
2017-12-09 05:00:00 7.4 3 Este 7 Noroeste 0 -- -- 85
2017-12-09 04:00:00 7.7 5 Sudoeste 10 Sur 0 -- -- 85
2017-12-09 03:00:00 6.5 0 Calma 5 Nordeste 0 -- -- 83
2017-12-09 02:00:00 7 3 Nordeste 8 Sur 0 -- -- 80
2017-12-09 01:00:00 7.7 5 Sur 7 Sur 0 -- -- 79
2017-12-09 00:00:00 8 3 Sur 8 Sur 0 -- -- 76
2017-12-08 23:00:00 8 0 Calma 6 Sudeste 0 -- -- 74
2017-12-08 22:00:00 9.2 3 Sur 7 Sur 0 -- -- 69
2017-12-08 21:00:00 10.2 5 Noroeste 9 Sudoeste 0 -- -- 62
2017-12-08 20:00:00 12 4 Sudoeste 12 Sur 0 -- -- 55
2017-12-08 19:00:00 12.7 8 Sur 10 Sudoeste 0 -- -- 51
2017-12-08 18:00:00 15.2 6 Sudoeste 14 Oeste 0 -- -- 43
2017-12-08 17:00:00 17.1 10 Oeste 17 Sudoeste 0 -- -- 37
2017-12-08 16:00:00 17.4 9 Sudoeste 13 Sudoeste 0 -- -- 35
2017-12-08 15:00:00 17 3 Sudoeste 7 Sudoeste 0 -- -- 37
2017-12-08 14:00:00 15.2 2 Sur 14 Sudeste 0 -- -- 42
2017-12-08 13:00:00 12.6 8 Este 15 Este 0 -- -- 53
2017-12-08 12:00:00 10.3 11 Este 18 Este 0 -- -- 58
2017-12-08 11:00:00 7.6 11 Este 20 Nordeste 0 -- -- 67
2017-12-08 10:00:00 5.4 10 Este 17 Este 0 -- -- 77
2017-12-08 09:00:00 2.9 4 Nordeste 14 Este 0 -- -- 87
2017-12-08 08:00:00 2.7 8 Este 15 Este 0 -- -- 87
2017-12-08 07:00:00 2.8 8 Este 13 Este 0 -- -- 88
2017-12-08 06:00:00 3.2 9 Este 14 Este 0 -- -- 87
2017-12-08 05:00:00 3.9 6 Este 11 Este 0 -- -- 86
2017-12-08 04:00:00 4.4 7 Este 13 Este 0 -- -- 85
2017-12-08 03:00:00 4.3 9 Este 12 Este 0 -- -- 87
2017-12-08 02:00:00 4 8 Nordeste 12 Este 0 -- -- 87
2017-12-08 01:00:00 4 8 Este 12 Este 0 -- -- 86
2017-12-08 00:00:00 4.7 7 Este 9 Este 0 -- -- 82
2017-12-07 23:00:00 5.7 6 Nordeste 9 Nordeste 0 -- -- 80
2017-12-07 22:00:00 6.4 3 Este 10 Nordeste 0 -- -- 78
2017-12-07 21:00:00 6.8 3 Norte 8 Este 0 -- -- 77
2017-12-07 20:00:00 8 8 Nordeste 8 Nordeste 0 -- -- 72
2017-12-07 19:00:00 10.2 3 Norte 4 Nordeste 0 -- -- 63
2017-12-07 18:00:00 13.4 4 Este 7 Este 0 -- -- 51
2017-12-07 17:00:00 15.1 6 Sudeste 14 Este 0 -- -- 44
2017-12-07 16:00:00 15.6 8 Este 14 Nordeste 0 -- -- 45
2017-12-07 15:00:00 14.9 9 Este 19 Este 0 -- -- 46
2017-12-07 14:00:00 13.9 14 Este 24 Este 0 -- -- 48
2017-12-07 13:00:00 12.2 18 Este 27 Este 0 -- -- 49
2017-12-07 12:00:00 9.9 20 Este 28 Este 0 -- -- 58
2017-12-07 11:00:00 7.6 14 Este 21 Este 0 -- -- 66
2017-12-07 10:00:00 4.8 10 Este 22 Este 0 -- -- 75
2017-12-07 09:00:00 2.8 12 Este 20 Este 0 -- -- 81
2017-12-07 08:00:00 2.2 12 Este 19 Este 0 -- -- 83
2017-12-07 07:00:00 2.2 9 Este 17 Este 0 -- -- 82
2017-12-07 06:00:00 2.9 10 Este 18 Este 0 -- -- 79
2017-12-07 05:00:00 3 9 Este 16 Este 0 -- -- 80
2017-12-07 04:00:00 3.9 10 Este 17 Este 0 -- -- 77
2017-12-07 03:00:00 4 7 Nordeste 12 Este 0 -- -- 78
2017-12-07 02:00:00 4.2 7 Nordeste 12 Nordeste 0 -- -- 78
2017-12-07 01:00:00 4.7 8 Este 14 Este 0 -- -- 78
2017-12-07 00:00:00 5.1 6 Nordeste 13 Nordeste 0 -- -- 78
2017-12-06 23:00:00 4.9 8 Este 11 Este 0 -- -- 78
2017-12-06 22:00:00 5.7 6 Nordeste 9 Nordeste 0 -- -- 76
2017-12-06 21:00:00 6.9 6 Nordeste 8 Nordeste 0 -- -- 73
2017-12-06 20:00:00 8 7 Este 9 Este 0 -- -- 70
2017-12-06 19:00:00 9.5 5 Sudeste 12 Este 0 -- -- 65
2017-12-06 18:00:00 12.9 9 Este 12 Nordeste 0 -- -- 52
2017-12-06 17:00:00 15.3 7 Nordeste 18 Este 0 -- -- 47
2017-12-06 16:00:00 15.4 12 Este 19 Este 0 -- -- 47
2017-12-06 15:00:00 15.2 11 Este 20 Este 0 -- -- 45
2017-12-06 14:00:00 13.9 12 Este 25 Este 0 -- -- 48
2017-12-06 13:00:00 12.3 17 Este 28 Este 0 -- -- 49
2017-12-06 12:00:00 10.1 18 Este 32 Este 0 -- -- 53
2017-12-06 11:00:00 7.5 23 Este 33 Este 0 -- -- 61
2017-12-06 10:00:00 4.6 17 Este 26 Este 0 -- -- 71
2017-12-06 09:00:00 2.4 10 Este 18 Este 0 -- -- 81
2017-12-06 08:00:00 2.1 12 Este 23 Este 0 -- -- 81
2017-12-06 07:00:00 2.5 14 Este 22 Este 0 -- -- 79
2017-12-06 06:00:00 2.5 13 Este 18 Nordeste 0 -- -- 80
2017-12-06 05:00:00 3.1 9 Este 16 Este 0 -- -- 77
2017-12-06 04:00:00 3.6 10 Este 15 Este 0 -- -- 76
2017-12-06 03:00:00 3.2 8 Este 10 Nordeste 0 -- -- 77
2017-12-06 02:00:00 4.4 10 Este 14 Este 0 -- -- 72
2017-12-06 01:00:00 5.1 9 Este 13 Este 0 -- -- 71
2017-12-06 00:00:00 6.1 4 Nordeste 18 Este 0 -- -- 67
2017-12-05 23:00:00 6.9 13 Este 21 Este 0 -- -- 65
2017-12-05 22:00:00 7.5 14 Este 19 Este 0 -- -- 63
2017-12-05 21:00:00 7 10 Este 13 Este 0 -- -- 65
2017-12-05 20:00:00 8 8 Este 12 Este 0 -- -- 63
2017-12-05 19:00:00 9.3 8 Este 11 Este 0 -- -- 64
2017-12-05 18:00:00 12.7 8 Este 17 Nordeste 0 -- -- 52
2017-12-05 17:00:00 14.7 12 Este 23 Nordeste 0 -- -- 45
2017-12-05 16:00:00 15.2 15 Este 24 Este 0 -- -- 43
2017-12-05 15:00:00 14.8 16 Este 27 Este 0 -- -- 43
2017-12-05 14:00:00 13.8 17 Este 30 Este 0 -- -- 44
2017-12-05 13:00:00 12.3 19 Este 30 Este 0 -- -- 47
2017-12-05 12:00:00 10.2 19 Este 36 Este 0 -- -- 52
2017-12-05 11:00:00 7.6 22 Este 36 Este 0 -- -- 59
2017-12-05 10:00:00 4.9 19 Este 31 Nordeste 0 -- -- 69
2017-12-05 09:00:00 3.3 15 Este 27 Este 0 -- -- 75
2017-12-05 08:00:00 2.6 15 Este 24 Este 0 -- -- 78
2017-12-05 07:00:00 2.8 17 Este 23 Este 0 -- -- 77
2017-12-05 06:00:00 3 17 Este 26 Este 0 -- -- 76
2017-12-05 05:00:00 3.2 12 Este 21 Este 0 -- -- 75
2017-12-05 04:00:00 4.2 13 Este 22 Este 0 -- -- 70
2017-12-05 03:00:00 3.7 9 Este 20 Este 0 -- -- 75
2017-12-05 02:00:00 4.1 10 Este 17 Este 0 -- -- 74
2017-12-05 01:00:00 5.1 12 Este 21 Este 0 -- -- 70
2017-12-05 00:00:00 5.9 15 Este 22 Este 0 -- -- 66
2017-12-04 23:00:00 6.3 13 Este 21 Este 0 -- -- 65
2017-12-04 22:00:00 7 14 Este 21 Este 0 -- -- 63
2017-12-04 21:00:00 6.8 11 Este 14 Este 0 -- -- 61
2017-12-04 20:00:00 7.4 9 Este 14 Este 0 -- -- 58
2017-12-04 19:00:00 9.1 10 Este 14 Este 0 -- -- 54
2017-12-04 18:00:00 11.6 10 Nordeste 19 Este 0 -- -- 44
2017-12-04 17:00:00 13.5 15 Este 27 Este 0 -- -- 39
2017-12-04 16:00:00 14 18 Este 36 Nordeste 0 -- -- 36
2017-12-04 15:00:00 13.6 22 Este 38 Este 0 -- -- 37
2017-12-04 14:00:00 12.7 22 Este 40 Este 0 -- -- 39
2017-12-04 13:00:00 10.9 28 Este 41 Nordeste 0 -- -- 45
2017-12-04 12:00:00 9.5 21 Este 39 Este 0 -- -- 47
2017-12-04 11:00:00 6.9 24 Este 39 Este 0 -- -- 53
2017-12-04 10:00:00 4.2 18 Este 30 Este 0 -- -- 63
2017-12-04 09:00:00 1.2 13 Este 19 Este 0 -- -- 75
2017-12-04 08:00:00 0.3 10 Este 19 Nordeste 0 -- -- 80
2017-12-04 07:00:00 0.3 12 Nordeste 19 Nordeste 0 -- -- 83
2017-12-04 06:00:00 -0.2 8 Este 12 Este 0 -- -- 86
2017-12-04 05:00:00 -0.2 9 Nordeste 10 Nordeste 0 -- -- 85
2017-12-04 04:00:00 0.8 6 Este 12 Nordeste 0 -- -- 82
2017-12-04 03:00:00 1.1 9 Este 12 Este 0 -- -- 82
2017-12-04 02:00:00 1.9 8 Este 14 Este 0 -- -- 81
2017-12-04 01:00:00 1.6 6 Nordeste 9 Nordeste 0 -- -- 82
2017-12-04 00:00:00 2.8 6 Este 9 Este 0 -- -- 78
2017-12-03 23:00:00 3.3 8 Este 9 Este 0 -- -- 77
2017-12-03 22:00:00 3.6 6 Este 12 Este 0 -- -- 77
2017-12-03 21:00:00 4.6 10 Este 12 Este 0 -- -- 73
2017-12-03 20:00:00 6 9 Este 14 Este 0 -- -- 68
2017-12-03 19:00:00 7.1 9 Este 13 Este 0 -- -- 64
2017-12-03 18:00:00 9.9 9 Este 18 Este 0 -- -- 53
2017-12-03 17:00:00 11.9 12 Este 22 Este 0 -- -- 42
2017-12-03 16:00:00 12.3 15 Este 24 Este 0 -- -- 41
2017-12-03 15:00:00 12.2 18 Este 32 Este 0 -- -- 41
2017-12-03 14:00:00 11.5 20 Este 32 Este 0 -- -- 41
2017-12-03 13:00:00 10.5 17 Este 31 Este 0 -- -- 46
2017-12-03 12:00:00 9.6 18 Este 26 Este 0 -- -- 50
2017-12-03 11:00:00 7.1 12 Este 17 Sudeste 0 -- -- 65
2017-12-03 10:00:00 4.5 6 Este 10 Este 0 -- -- 74
2017-12-03 09:00:00 1.3 4 Este 9 Este 0 -- -- 87
2017-12-03 08:00:00 0.9 8 Este 15 Sudeste 0 -- -- 84
2017-12-03 07:00:00 0.6 5 Este 7 Este 0 -- -- 86
2017-12-03 06:00:00 1.3 5 Nordeste 9 Este 0 -- -- 83
2017-12-03 05:00:00 1.8 6 Este 9 Este 0 -- -- 84
2017-12-03 04:00:00 1.3 2 Este 7 Este 0 -- -- 86
2017-12-03 03:00:00 1.8 3 Este 5 Nordeste 0 -- -- 86
2017-12-03 02:00:00 2.4 3 Sudeste 5 Sudeste 0 -- -- 82
2017-12-03 01:00:00 3.1 3 Sudoeste 4 Sudoeste 0 -- -- 80
2017-12-03 00:00:00 3.4 3 Este 9 Este 0 -- -- 76
2017-12-02 23:00:00 4.2 3 Nordeste 10 Nordeste 0 -- -- 72
2017-12-02 22:00:00 4.9 7 Nordeste 11 Nordeste 0 -- -- 71
2017-12-02 21:00:00 5.4 4 Nordeste 10 Nordeste 0 -- -- 75
2017-12-02 20:00:00 6.8 5 Nordeste 9 Norte 0 -- -- 64
2017-12-02 19:00:00 7.8 8 Norte 10 Este 0 -- -- 61
2017-12-02 18:00:00 10.7 8 Este 13 Este 0 -- -- 51
2017-12-02 17:00:00 12.6 8 Este 17 Este 0 -- -- 40
2017-12-02 16:00:00 12.9 11 Este 18 Este 0 -- -- 38
2017-12-02 15:00:00 12.5 13 Este 21 Este 0 -- -- 38
2017-12-02 14:00:00 11.6 10 Este 24 Este 0 -- -- 41
2017-12-02 13:00:00 10.8 15 Este 26 Este 0 -- -- 41
2017-12-02 12:00:00 10 12 Este 21 Este 0 -- -- 46
2017-12-02 11:00:00 8.4 6 Nordeste 13 Nordeste 0 -- -- 54
2017-12-02 10:00:00 5.3 2 Este 9 Nordeste 0 -- -- 75
2017-12-02 09:00:00 2.2 3 Nordeste 6 Nordeste 0 -- -- 86
2017-12-02 08:00:00 1.3 0 Calma 7 Nordeste 0 -- -- 86
2017-12-02 07:00:00 2.8 5 Nordeste 15 Este 0 -- -- 85
2017-12-02 06:00:00 2.8 9 Nordeste 13 Nordeste 0 -- -- 84
2017-12-02 05:00:00 3.7 3 Sudeste 12 Sudeste 0 -- -- 81
2017-12-02 04:00:00 4.4 6 Sudeste 9 Sudeste 0 -- -- 82
2017-12-02 03:00:00 5.2 8 Sudeste 10 Sur 0 -- -- 78
2017-12-02 02:00:00 6 8 Este 14 Nordeste 0 -- -- 74
2017-12-02 01:00:00 6.4 5 Nordeste 18 Este 0 -- -- 73
2017-12-02 00:00:00 6.3 9 Nordeste 13 Nordeste 0 -- -- 77
2017-12-01 23:00:00 7.3 2 Sudeste 10 Sudoeste 0 -- -- 73
2017-12-01 22:00:00 8.6 8 Sudoeste 13 Sudoeste 0 -- -- 65
2017-12-01 21:00:00 8.7 7 Oeste 13 Oeste 0 -- -- 65
2017-12-01 20:00:00 10 5 Oeste 13 Noroeste 0 -- -- 59
2017-12-01 19:00:00 10.9 8 Noroeste 16 Norte 0 -- -- 55
2017-12-01 18:00:00 13.3 8 Norte 16 Norte 0 -- -- 49
2017-12-01 17:00:00 15.5 5 Oeste 18 Oeste 0 -- -- 37
2017-12-01 16:00:00 15.5 9 Oeste 17 Oeste 0 -- -- 38
2017-12-01 15:00:00 14.4 10 Oeste 18 Oeste 0 -- -- 40
2017-12-01 14:00:00 12.4 7 Sudoeste 13 Oeste 0 -- -- 47
2017-12-01 13:00:00 11.4 8 Sudoeste 15 Oeste 0 -- -- 50
2017-12-01 12:00:00 9.5 5 Oeste 11 Oeste 0 -- -- 57
2017-12-01 11:00:00 8.2 5 Noroeste 9 Noroeste 0 -- -- 58
2017-12-01 10:00:00 6 2 Sudeste 7 Sudeste 0 -- -- 71
2017-12-01 09:00:00 2.5 5 Sudeste 8 Este 0 -- -- 89
2017-12-01 08:00:00 1.3 6 Nordeste 8 Nordeste 0 -- -- 85
2017-12-01 07:00:00 2.8 4 Nordeste 10 Nordeste 0 -- -- 76
2017-12-01 06:00:00 3 6 Nordeste 10 Nordeste 0 -- -- 75
2017-12-01 05:00:00 2.9 6 Nordeste 12 Nordeste 0 -- -- 76
2017-12-01 04:00:00 3.6 8 Norte 12 Norte 0 -- -- 72
2017-12-01 03:00:00 3.5 6 Nordeste 9 Nordeste 0 -- -- 69
2017-12-01 02:00:00 3.8 6 Norte 10 Norte 0 -- -- 70
2017-12-01 01:00:00 4.4 0 Calma 12 Nordeste 0 -- -- 74
2017-12-01 00:00:00 5.5 10 Nordeste 12 Nordeste 0 -- -- 62
2017-11-30 23:00:00 6 8 Nordeste 11 Nordeste 0 -- -- 65
2017-11-30 22:00:00 6.5 4 Norte 10 Noroeste 0 -- -- 64
2017-11-30 21:00:00 7.3 10 Noroeste 13 Norte 0 -- -- 59
2017-11-30 20:00:00 8.3 10 Norte 14 Norte 0 -- -- 54
2017-11-30 19:00:00 10.4 7 Nordeste 21 Nordeste 0 -- -- 43
2017-11-30 18:00:00 12.8 13 Nordeste 27 Nordeste 0 -- -- 35
2017-11-30 17:00:00 15 17 Nordeste 30 Nordeste 0 -- -- 30
2017-11-30 16:00:00 16 15 Nordeste 27 Nordeste 0 -- -- 28
2017-11-30 15:00:00 15.8 15 Nordeste 27 Nordeste 0 -- -- 30
2017-11-30 14:00:00 15.5 15 Nordeste 30 Nordeste 0 -- -- 34
2017-11-30 13:00:00 14.7 19 Nordeste 33 Nordeste 0 -- -- 35
2017-11-30 12:00:00 14.1 14 Nordeste 29 Nordeste 0 -- -- 41
2017-11-30 11:00:00 12.8 13 Nordeste 23 Norte 0 -- -- 48
2017-11-30 10:00:00 10.4 7 Norte 12 Norte 0 -- -- 62
2017-11-30 09:00:00 7.5 9 Norte 12 Norte 0 -- -- 77
2017-11-30 08:00:00 6.2 8 Norte 12 Norte 0 -- -- 80
2017-11-30 07:00:00 6.2 8 Norte 10 Nordeste 0 -- -- 83
2017-11-30 06:00:00 6.1 8 Norte 9 Norte 0 -- -- 86
2017-11-30 05:00:00 6.5 6 Norte 10 Norte 0 -- -- 86
2017-11-30 04:00:00 6.6 5 Norte 8 Norte 0 -- -- 85
2017-11-30 03:00:00 6.9 7 Norte 10 Norte 0 -- -- 83
2017-11-30 02:00:00 7.7 7 Noroeste 9 Norte 0 -- -- 78
2017-11-30 01:00:00 8.6 4 Norte 9 Norte 0 -- -- 75
2017-11-30 00:00:00 9.3 0 Calma 7 Noroeste 0 -- -- 79
2017-11-29 23:00:00 10 2 Nordeste 11 Norte 0 -- -- 77
2017-11-29 22:00:00 11.2 8 Norte 17 Norte 0 -- -- 69
2017-11-29 21:00:00 12.3 7 Norte 20 Norte 0 -- -- 66
2017-11-29 20:00:00 13.1 12 Norte 19 Norte 0 -- -- 67
2017-11-29 19:00:00 14.7 6 Norte 13 Norte 0 -- -- 68
2017-11-29 18:00:00 16.6 7 Norte 14 Norte 0 -- -- 64
2017-11-29 17:00:00 18 10 Norte 23 Norte 0 -- -- 60
2017-11-29 16:00:00 19.8 12 Norte 23 Norte 0 -- -- 61
2017-11-29 15:00:00 19.2 14 Norte 23 Norte 0 -- -- 66
2017-11-29 14:00:00 17.8 13 Noroeste 22 Norte 0 -- -- 74
2017-11-29 13:00:00 17.2 9 Noroeste 13 Noroeste 0 -- -- 82
2017-11-29 12:00:00 16.2 7 Oeste 10 Sudoeste 0 -- -- 93
2017-11-29 11:00:00 15.4 3 Noroeste 8 Noroeste 0 -- -- 94
2017-11-29 10:00:00 14.7 3 Norte 5 Norte 0 -- -- 93
2017-11-29 09:00:00 14 0 Calma 4 Sudoeste 0 -- -- 93
2017-11-29 08:00:00 13.8 0 Calma 9 Oeste 0.2 -- -- 93
2017-11-29 07:00:00 13.8 4 Norte 10 Noroeste 0 -- -- 93
2017-11-29 06:00:00 13.8 3 Norte 5 Este 0 -- -- 93
2017-11-29 05:00:00 13.8 2 Este 12 Este 0.6 -- -- 93
2017-11-29 04:00:00 13.9 3 Sudeste 13 Nordeste 5 -- -- 92
2017-11-29 03:00:00 14.1 4 Sudeste 7 Norte 3 -- -- 92
2017-11-29 02:00:00 14.1 4 Sudeste 9 Sur 0.2 -- -- 92
2017-11-29 01:00:00 14 4 Nordeste 31 Noroeste 0.8 -- -- 91
2017-11-29 00:00:00 14.1 6 Sudeste 15 Nordeste 2.6 -- -- 91
2017-11-28 23:00:00 13.8 9 Nordeste 15 Nordeste 6.6 -- -- 88
2017-11-28 22:00:00 14.4 9 Este 16 Este 0 -- -- 83
2017-11-28 21:00:00 14.6 6 Este 14 Sudeste 0.2 -- -- 83
2017-11-28 20:00:00 14.7 8 Sudeste 14 Este 0 -- -- 83
2017-11-28 19:00:00 14.7 6 Este 9 Este 0 -- -- 82
2017-11-28 18:00:00 15.4 3 Este 11 Este 0.2 -- -- 78
2017-11-28 17:00:00 16.6 8 Nordeste 14 Este 0 -- -- 71
2017-11-28 16:00:00 17.1 10 Este 19 Este 0 -- -- 66
2017-11-28 15:00:00 16.2 13 Este 18 Este 0 -- -- 69
2017-11-28 14:00:00 16.1 10 Este 20 Este 0 -- -- 70
2017-11-28 13:00:00 15.1 10 Este 19 Este 0 -- -- 73
2017-11-28 12:00:00 14.9 9 Este 26 Este 0 -- -- 74
2017-11-28 11:00:00 14.3 17 Este 26 Este 0 -- -- 74
2017-11-28 10:00:00 12.9 12 Este 21 Este 0 -- -- 83
2017-11-28 09:00:00 11.5 8 Este 16 Nordeste 0 -- -- 88
2017-11-28 08:00:00 11.4 9 Este 15 Este 0.2 -- -- 88
2017-11-28 07:00:00 11.3 4 Oeste 11 Este 0 -- -- 87
2017-11-28 06:00:00 11.7 8 Este 17 Este 0 -- -- 85
2017-11-28 05:00:00 11.7 11 Este 22 Este 0 -- -- 86
2017-11-28 04:00:00 11.7 8 Este 15 Este 0.2 -- -- 86
2017-11-28 03:00:00 11.8 15 Este 22 Sudeste 0.6 -- -- 83
2017-11-28 02:00:00 11.9 3 Nordeste 10 Nordeste 0 -- -- 77
2017-11-28 01:00:00 12 4 Nordeste 12 Este 0 -- -- 77
2017-11-28 00:00:00 11.3 8 Este 9 Este 0 -- -- 79
2017-11-27 23:00:00 11.7 4 Este 10 Nordeste 0 -- -- 76
2017-11-27 22:00:00 11.6 5 Nordeste 7 Este 0 -- -- 72
2017-11-27 21:00:00 12.6 5 Este 9 Sudeste 0 -- -- 68
2017-11-27 20:00:00 13.8 3 Sudeste 5 Sudeste 0 -- -- 66
2017-11-27 19:00:00 15.8 0 Calma 5 Norte 0 -- -- 61
2017-11-27 18:00:00 17.8 4 Norte 5 Norte 0 -- -- 57
2017-11-27 17:00:00 18.6 3 Nordeste 7 Nordeste 0 -- -- 53
2017-11-27 16:00:00 18.8 4 Este 12 Este 0 -- -- 50
2017-11-27 15:00:00 18.3 10 Sudeste 17 Este 0 -- -- 49
2017-11-27 14:00:00 17.5 11 Este 19 Este 0 -- -- 50
2017-11-27 13:00:00 16.5 13 Este 20 Este 0 -- -- 49
2017-11-27 12:00:00 14.7 14 Este 23 Este 0 -- -- 48
2017-11-27 11:00:00 13.6 14 Este 23 Este 0 -- -- 44
2017-11-27 10:00:00 11 12 Este 21 Este 0 -- -- 50
2017-11-27 09:00:00 9.8 11 Este 23 Este 0 -- -- 50
2017-11-27 08:00:00 9.8 13 Este 27 Este 0 -- -- 49
2017-11-27 07:00:00 10 14 Este 28 Este 0 -- -- 49
2017-11-27 06:00:00 10.6 17 Este 27 Este 0 -- -- 48
2017-11-27 05:00:00 10.9 13 Este 23 Este 0 -- -- 49
2017-11-27 04:00:00 11.4 14 Este 23 Este 0 -- -- 50
2017-11-27 03:00:00 11.7 10 Este 18 Este 0 -- -- 54
2017-11-27 02:00:00 12.5 9 Este 18 Este 0 -- -- 53
2017-11-27 01:00:00 13.5 12 Este 25 Este 0 -- -- 52
2017-11-27 00:00:00 13.9 8 Este 15 Este 0 -- -- 55
2017-11-26 23:00:00 13.4 8 Este 11 Este 0 -- -- 61
2017-11-26 22:00:00 13.7 7 Nordeste 10 Este 0 -- -- 61
2017-11-26 21:00:00 14.3 6 Este 10 Nordeste 0 -- -- 59
2017-11-26 20:00:00 15.2 9 Nordeste 12 Nordeste 0 -- -- 56
2017-11-26 19:00:00 16.7 6 Nordeste 7 Nordeste 0 -- -- 53
2017-11-26 18:00:00 18.8 5 Nordeste 13 Este 0 -- -- 48
2017-11-26 17:00:00 20.1 9 Este 20 Este 0 -- -- 44
2017-11-26 16:00:00 20 14 Este 25 Este 0 -- -- 43
2017-11-26 15:00:00 20.5 17 Este 28 Nordeste 0 -- -- 42
2017-11-26 14:00:00 20.1 19 Nordeste 36 Este 0 -- -- 43
2017-11-26 13:00:00 19.1 22 Este 39 Nordeste 0 -- -- 46
2017-11-26 12:00:00 18.1 23 Este 36 Este 0 -- -- 54
2017-11-26 11:00:00 15.6 12 Este 19 Este 0 -- -- 70
2017-11-26 10:00:00 12.8 10 Este 18 Nordeste 0 -- -- 77
2017-11-26 09:00:00 10.5 7 Este 11 Nordeste 0 -- -- 82
2017-11-26 08:00:00 10.5 7 Este 14 Este 0 -- -- 80
2017-11-26 07:00:00 11.2 8 Este 12 Nordeste 0 -- -- 77
2017-11-26 06:00:00 11.2 8 Este 13 Este 0 -- -- 75
2017-11-26 05:00:00 11.2 8 Este 11 Este 0 -- -- 73
2017-11-26 04:00:00 12 10 Este 13 Este 0 -- -- 70
2017-11-26 03:00:00 11.8 9 Este 12 Nordeste 0 -- -- 72
2017-11-26 02:00:00 12.2 8 Nordeste 12 Este 0 -- -- 70
2017-11-26 01:00:00 13.4 6 Nordeste 11 Nordeste 0 -- -- 66
2017-11-26 00:00:00 14.4 5 Este 10 Nordeste 0 -- -- 62
2017-11-25 23:00:00 13.8 4 Este 9 Nordeste 0 -- -- 68
2017-11-25 22:00:00 14.8 4 Este 10 Este 0 -- -- 65
2017-11-25 21:00:00 15.8 8 Sudeste 10 Sudeste 0 -- -- 55
2017-11-25 20:00:00 15.5 5 Este 9 Este 0 -- -- 64
2017-11-25 19:00:00 16.7 3 Sur 4 Sur 0 -- -- 60
2017-11-25 18:00:00 18.9 0 Calma 7 Sudoeste 0 -- -- 52
2017-11-25 17:00:00 20.2 0 Calma 9 Oeste 0 -- -- 47
2017-11-25 16:00:00 20.3 5 Sudoeste 9 Oeste 0 -- -- 41
2017-11-25 15:00:00 18.7 0 Calma 7 Este 0 -- -- 43
2017-11-25 14:00:00 17.1 7 Este 12 Sudeste 0 -- -- 46
2017-11-25 13:00:00 16 8 Este 14 Nordeste 0 -- -- 48
2017-11-25 12:00:00 15.1 10 Nordeste 19 Este 0 -- -- 51
2017-11-25 11:00:00 12.7 13 Este 19 Este 0 -- -- 59
2017-11-25 10:00:00 10.9 8 Este 14 Este 0 -- -- 66
2017-11-25 09:00:00 8.8 7 Este 13 Este 0 -- -- 72
2017-11-25 08:00:00 8.5 10 Este 19 Sudeste 0 -- -- 72
2017-11-25 07:00:00 7.4 4 Nordeste 13 Este 0 -- -- 78
2017-11-25 06:00:00 8.2 9 Este 14 Este 0 -- -- 75
2017-11-25 05:00:00 8.1 10 Este 14 Este 0 -- -- 75
2017-11-25 04:00:00 8.4 8 Este 13 Este 0 -- -- 75
2017-11-25 03:00:00 8.8 10 Este 12 Este 0 -- -- 72
2017-11-25 02:00:00 9.1 8 Este 11 Nordeste 0 -- -- 72
2017-11-25 01:00:00 9.4 6 Este 9 Nordeste 0 -- -- 71
2017-11-25 00:00:00 10.3 6 Este 9 Este 0 -- -- 70
2017-11-24 23:00:00 10.8 6 Este 9 Nordeste 0 -- -- 65
2017-11-24 22:00:00 11.5 3 Este 5 Nordeste 0 -- -- 58
2017-11-24 21:00:00 12.8 4 Sudeste 8 Este 0 -- -- 57
2017-11-24 20:00:00 14.5 4 Este 6 Nordeste 0 -- -- 54
2017-11-24 19:00:00 17.3 5 Este 6 Este 0 -- -- 44
2017-11-24 18:00:00 22.4 3 Norte 4 Norte 0 -- -- 34
2017-11-24 17:00:00 24.7 3 Nordeste 9 Oeste 0 -- -- 28
2017-11-24 16:00:00 24.7 0 Calma 8 Norte 0 -- -- 27
2017-11-24 15:00:00 23.7 5 Norte 14 Nordeste 0 -- -- 29
2017-11-24 14:00:00 21.8 7 Este 15 Sudeste 0 -- -- 32
2017-11-24 13:00:00 19.7 10 Este 19 Este 0 -- -- 39
2017-11-24 12:00:00 17.8 13 Este 20 Este 0 -- -- 42
2017-11-24 11:00:00 15 12 Este 21 Este 0 -- -- 49
2017-11-24 10:00:00 11.1 9 Este 17 Este 0 -- -- 62
2017-11-24 09:00:00 7.8 6 Nordeste 9 Nordeste 0 -- -- 78
2017-11-24 08:00:00 7.2 8 Nordeste 13 Este 0 -- -- 77
2017-11-24 07:00:00 7.3 9 Este 14 Este 0 -- -- 76
2017-11-24 06:00:00 8.1 9 Nordeste 14 Este 0 -- -- 74
2017-11-24 05:00:00 9.2 12 Este 15 Este 0 -- -- 68
2017-11-24 04:00:00 9 8 Nordeste 12 Nordeste 0 -- -- 71
2017-11-24 03:00:00 10.2 9 Nordeste 14 Este 0 -- -- 66
2017-11-24 02:00:00 11.2 10 Este 17 Este 0 -- -- 64
2017-11-24 01:00:00 10.3 10 Este 12 Este 0 -- -- 67
2017-11-24 00:00:00 11.1 6 Nordeste 11 Este 0 -- -- 65
2017-11-23 23:00:00 12.3 9 Este 10 Este 0 -- -- 63
2017-11-23 22:00:00 13 3 Este 7 Este 0 -- -- 60
2017-11-23 21:00:00 13.4 4 Este 8 Este 0 -- -- 54
2017-11-23 20:00:00 14.2 5 Sudeste 7 Sudeste 0 -- -- 52
2017-11-23 19:00:00 15.9 7 Sudeste 8 Este 0 -- -- 48
2017-11-23 18:00:00 19.9 3 Nordeste 4 Nordeste 0 -- -- 39
2017-11-23 17:00:00 22.3 2 Norte 7 Nordeste 0 -- -- 35
2017-11-23 16:00:00 22.3 4 Nordeste 9 Norte 0 -- -- 32
2017-11-23 15:00:00 21.5 7 Este 13 Nordeste 0 -- -- 33
2017-11-23 14:00:00 20.3 8 Este 18 Este 0 -- -- 35
2017-11-23 13:00:00 18.3 12 Este 23 Este 0 -- -- 38
2017-11-23 12:00:00 15.9 18 Este 25 Este 0 -- -- 43
2017-11-23 11:00:00 12.5 17 Este 28 Este 0 -- -- 53
2017-11-23 10:00:00 10.7 15 Este 24 Este 0 -- -- 59
2017-11-23 09:00:00 8.2 10 Este 20 Este 0 -- -- 68
2017-11-23 08:00:00 7.3 10 Este 14 Este 0 -- -- 73
2017-11-23 07:00:00 7 9 Este 14 Este 0 -- -- 74
2017-11-23 06:00:00 7.3 9 Este 13 Nordeste 0 -- -- 72
2017-11-23 05:00:00 8 7 Este 12 Este 0 -- -- 70
2017-11-23 04:00:00 8.7 6 Este 12 Este 0 -- -- 67
2017-11-23 03:00:00 10 7 Este 11 Este 0 -- -- 64
2017-11-23 02:00:00 10.7 7 Este 12 Este 0 -- -- 62
2017-11-23 01:00:00 9.5 8 Este 12 Este 0 -- -- 68
2017-11-23 00:00:00 9.1 6 Este 8 Este 0 -- -- 69
2017-11-22 23:00:00 9 5 Este 6 Este 0 -- -- 65
2017-11-22 22:00:00 9.8 0 Calma 4 Sudeste 0 -- -- 60
2017-11-22 21:00:00 10.6 5 Norte 10 Norte 0 -- -- 59
2017-11-22 20:00:00 12.4 4 Sur 8 Sur 0 -- -- 50
2017-11-22 19:00:00 14.7 0 Calma 6 Oeste 0 -- -- 49
2017-11-22 18:00:00 20.4 4 Oeste 6 Oeste 0 -- -- 36
2017-11-22 17:00:00 22.6 0 Calma 8 Oeste 0 -- -- 28
2017-11-22 16:00:00 22.2 0 Calma 6 Sur 0 -- -- 30
2017-11-22 15:00:00 21 2 Oeste 9 Este 0 -- -- 32
2017-11-22 14:00:00 19.1 6 Sudeste 17 Este 0 -- -- 35
2017-11-22 13:00:00 17.9 8 Este 26 Este 0 -- -- 37
2017-11-22 12:00:00 15.8 18 Este 28 Este 0 -- -- 41
2017-11-22 11:00:00 12.6 12 Este 24 Este 0 -- -- 51
2017-11-22 10:00:00 9.3 13 Este 20 Este 0 -- -- 60
2017-11-22 09:00:00 6.2 12 Este 18 Este 0 -- -- 71
2017-11-22 08:00:00 4.9 11 Este 19 Este 0 -- -- 75
2017-11-22 07:00:00 4.4 9 Este 13 Este 0 -- -- 79
2017-11-22 06:00:00 5 10 Este 17 Este 0 -- -- 76
2017-11-22 05:00:00 5.5 10 Este 15 Este 0 -- -- 75
2017-11-22 04:00:00 6.1 9 Este 15 Este 0 -- -- 72
2017-11-22 03:00:00 6.3 10 Este 15 Este 0 -- -- 71
2017-11-22 02:00:00 7 13 Este 16 Este 0 -- -- 72
2017-11-22 01:00:00 7.1 7 Este 11 Sudeste 0 -- -- 69
2017-11-22 00:00:00 8.1 6 Este 9 Este 0 -- -- 65
2017-11-21 23:00:00 8.6 7 Nordeste 9 Nordeste 0 -- -- 64
2017-11-21 22:00:00 9.3 4 Nordeste 8 Sudeste 0 -- -- 64
2017-11-21 21:00:00 10.6 6 Este 8 Nordeste 0 -- -- 57
2017-11-21 20:00:00 12.7 2 Sudeste 4 Sudeste 0 -- -- 49
2017-11-21 19:00:00 15.2 3 Sur 4 Sur 0 -- -- 49
2017-11-21 18:00:00 22 0 Calma 4 Sur 0 -- -- 33
2017-11-21 17:00:00 23.1 4 Este 8 Este 0 -- -- 24
2017-11-21 16:00:00 23.2 4 Este 12 Sudeste 0 -- -- 25
2017-11-21 15:00:00 22.2 9 Este 19 Este 0 -- -- 28
2017-11-21 14:00:00 20.9 12 Este 26 Este 0 -- -- 30
2017-11-21 13:00:00 18.8 17 Este 31 Nordeste 0 -- -- 36
2017-11-21 12:00:00 16.2 19 Este 29 Este 0 -- -- 42
2017-11-21 11:00:00 13.9 18 Este 27 Este 0 -- -- 48
2017-11-21 10:00:00 10.4 17 Este 27 Este 0 -- -- 59
2017-11-21 09:00:00 7.3 14 Este 22 Este 0 -- -- 68
2017-11-21 08:00:00 6 10 Este 16 Este 0 -- -- 73
2017-11-21 07:00:00 5.7 6 Este 13 Este 0 -- -- 75
2017-11-21 06:00:00 5.6 8 Este 13 Nordeste 0 -- -- 75
2017-11-21 05:00:00 6.6 9 Este 13 Este 0 -- -- 73
2017-11-21 04:00:00 6.9 9 Este 13 Este 0 -- -- 72
2017-11-21 03:00:00 7.6 8 Este 15 Este 0 -- -- 70
2017-11-21 02:00:00 7.9 11 Nordeste 14 Este 0 -- -- 69
2017-11-21 01:00:00 8.9 10 Nordeste 15 Este 0 -- -- 67
2017-11-21 00:00:00 10.2 12 Este 15 Este 0 -- -- 60
2017-11-20 23:00:00 10.2 11 Este 13 Este 0 -- -- 62
2017-11-20 22:00:00 10.8 6 Nordeste 10 Nordeste 0 -- -- 60
2017-11-20 21:00:00 12 6 Norte 8 Norte 0 -- -- 57
2017-11-20 20:00:00 14 5 Nordeste 8 Este 0 -- -- 53
2017-11-20 19:00:00 15.7 7 Este 9 Este 0 -- -- 47
2017-11-20 18:00:00 21.2 7 Este 15 Este 0 -- -- 35
2017-11-20 17:00:00 22.9 9 Este 17 Este 0 -- -- 30
2017-11-20 16:00:00 23.1 12 Este 19 Este 0 -- -- 30
2017-11-20 15:00:00 22.7 12 Este 24 Este 0 -- -- 30
2017-11-20 14:00:00 21.5 16 Este 26 Este 0 -- -- 31
2017-11-20 13:00:00 19 20 Este 37 Este 0 -- -- 38
2017-11-20 12:00:00 16.9 24 Este 34 Este 0 -- -- 42
2017-11-20 11:00:00 14.4 19 Este 31 Este 0 -- -- 49
2017-11-20 10:00:00 11.1 14 Este 22 Este 0 -- -- 62
2017-11-20 09:00:00 8.3 9 Este 21 Nordeste 0 -- -- 72
2017-11-20 08:00:00 7.1 10 Este 19 Este 0 -- -- 76
2017-11-20 07:00:00 7.6 11 Este 18 Este 0 -- -- 74
2017-11-20 06:00:00 8 12 Este 21 Este 0 -- -- 74
2017-11-20 05:00:00 7.7 12 Este 18 Nordeste 0 -- -- 77
2017-11-20 04:00:00 8 9 Este 17 Este 0 -- -- 77
2017-11-20 03:00:00 8.3 10 Nordeste 17 Nordeste 0 -- -- 76
2017-11-20 02:00:00 9 9 Este 15 Nordeste 0 -- -- 73
2017-11-20 01:00:00 9.2 9 Este 13 Este 0 -- -- 73
2017-11-20 00:00:00 9.4 9 Este 13 Este 0 -- -- 70
2017-11-19 23:00:00 10.4 10 Este 13 Este 0 -- -- 66
2017-11-19 22:00:00 10.8 7 Nordeste 10 Nordeste 0 -- -- 63
2017-11-19 21:00:00 12.1 6 Nordeste 9 Nordeste 0 -- -- 60
2017-11-19 20:00:00 14.2 10 Este 16 Sudeste 0 -- -- 53
2017-11-19 19:00:00 16.2 9 Este 12 Este 0 -- -- 47
2017-11-19 18:00:00 20 7 Nordeste 14 Este 0 -- -- 39
2017-11-19 17:00:00 21.9 8 Nordeste 19 Este 0 -- -- 34
2017-11-19 16:00:00 22 13 Este 21 Este 0 -- -- 32
2017-11-19 15:00:00 21.3 16 Este 25 Este 0 -- -- 34
2017-11-19 14:00:00 20.5 15 Este 27 Este 0 -- -- 37
2017-11-19 13:00:00 18.8 15 Este 31 Este 0 -- -- 45
2017-11-19 12:00:00 16.5 21 Este 32 Este 0 -- -- 49
2017-11-19 11:00:00 13.7 19 Este 29 Este 0 -- -- 55
2017-11-19 10:00:00 10.7 14 Este 22 Este 0 -- -- 65
2017-11-19 09:00:00 7.9 12 Este 17 Este 0 -- -- 74
2017-11-19 08:00:00 5.9 6 Este 10 Este 0 -- -- 81
2017-11-19 07:00:00 6.4 6 Nordeste 11 Nordeste 0 -- -- 80
2017-11-19 06:00:00 7.1 4 Nordeste 18 Nordeste 0 -- -- 77
2017-11-19 05:00:00 7.2 8 Este 13 Este 0 -- -- 77
2017-11-19 04:00:00 7.3 6 Este 15 Nordeste 0 -- -- 79
2017-11-19 03:00:00 7.3 8 Nordeste 11 Nordeste 0 -- -- 79
2017-11-19 02:00:00 7.8 8 Este 12 Este 0 -- -- 77
2017-11-19 01:00:00 8.7 8 Nordeste 13 Nordeste 0 -- -- 75
2017-11-19 00:00:00 9.5 9 Este 11 Este 0 -- -- 73
2017-11-18 23:00:00 9.3 8 Este 10 Nordeste 0 -- -- 72
2017-11-18 22:00:00 10.8 5 Norte 6 Norte 0 -- -- 67
2017-11-18 21:00:00 11.9 2 Sur 8 Sur 0 -- -- 64
2017-11-18 20:00:00 13 6 Este 8 Este 0 -- -- 57
2017-11-18 19:00:00 16.6 5 Norte -- -- 0 -- -- 43
2017-11-18 18:00:00 20.8 3 Nordeste 5 Nordeste 0 -- -- 37
2017-11-18 17:00:00 22 4 Nordeste 9 Nordeste 0 -- -- 32
2017-11-18 16:00:00 21.7 5 Este 14 Este 0 -- -- 31
2017-11-18 15:00:00 20.7 9 Este 18 Este 0 -- -- 35
2017-11-18 14:00:00 19.7 9 Este 22 Este 0 -- -- 38
2017-11-18 13:00:00 18.3 14 Este 25 Este 0 -- -- 43
2017-11-18 12:00:00 16 16 Este 26 Este 0 -- -- 49
2017-11-18 11:00:00 13.4 13 Este 22 Este 0 -- -- 56
2017-11-18 10:00:00 9.9 12 Este 19 Este 0 -- -- 67
2017-11-18 09:00:00 7 6 Nordeste 13 Este 0 -- -- 79
2017-11-18 08:00:00 5.8 9 Nordeste 15 Este 0 -- -- 83
2017-11-18 07:00:00 5.3 7 Nordeste 13 Este 0 -- -- 83
2017-11-18 06:00:00 6.1 9 Este 14 Este 0 -- -- 81
2017-11-18 05:00:00 6.5 9 Nordeste 14 Este 0 -- -- 82
2017-11-18 04:00:00 6.5 9 Este 14 Nordeste 0 -- -- 81
2017-11-18 03:00:00 6.7 8 Nordeste 11 Este 0 -- -- 80
2017-11-18 02:00:00 7.1 8 Este 11 Este 0 -- -- 78
2017-11-18 01:00:00 7.7 9 Este 13 Este 0 -- -- 75
2017-11-18 00:00:00 7.9 3 Este 6 Nordeste 0 -- -- 71
2017-11-17 23:00:00 9.2 2 Sudeste 7 Nordeste 0 -- -- 71
2017-11-17 22:00:00 9.9 4 Nordeste 6 Nordeste 0 -- -- 66
2017-11-17 21:00:00 10.9 0 Calma 6 Nordeste 0 -- -- 65
2017-11-17 20:00:00 12.9 2 Este 3 Norte 0 -- -- 58
2017-11-17 19:00:00 15.9 2 Noroeste 5 Oeste 0 -- -- 51
2017-11-17 18:00:00 21.4 2 Norte 5 Nordeste 0 -- -- 35
2017-11-17 17:00:00 22.7 0 Calma 9 Este 0 -- -- 29
2017-11-17 16:00:00 21.9 4 Sudeste 13 Este 0 -- -- 31
2017-11-17 15:00:00 20.8 8 Este 15 Sudeste 0 -- -- 34
2017-11-17 14:00:00 19.6 11 Este 18 Este 0 -- -- 41
2017-11-17 13:00:00 18.4 12 Este 24 Este 0 -- -- 44
2017-11-17 12:00:00 16.1 13 Este 27 Este 0 -- -- 47
2017-11-17 11:00:00 13 13 Este 21 Este 0 -- -- 57
2017-11-17 10:00:00 9.8 13 Este 20 Este 0 -- -- 68
2017-11-17 09:00:00 6.7 6 Este 12 Este 0 -- -- 84
2017-11-17 08:00:00 5.2 4 Este 14 Este 0 -- -- 86
2017-11-17 07:00:00 5.7 9 Este 14 Este 0 -- -- 85
2017-11-17 06:00:00 6.1 11 Este 14 Este 0 -- -- 84
2017-11-17 05:00:00 6.5 9 Este 13 Este 0 -- -- 84
2017-11-17 04:00:00 6.3 7 Nordeste 11 Este 0 -- -- 82
2017-11-17 03:00:00 6.9 7 Nordeste 11 Este 0 -- -- 80
2017-11-17 02:00:00 7.7 9 Este 14 Este 0 -- -- 78
2017-11-17 01:00:00 8.5 9 Este 10 Este 0 -- -- 75
2017-11-17 00:00:00 8.7 5 Este 8 Nordeste 0 -- -- 72
2017-11-16 23:00:00 10.3 4 Nordeste 11 Nordeste 0 -- -- 63
2017-11-16 22:00:00 10.4 5 Nordeste 9 Nordeste 0 -- -- 67
2017-11-16 21:00:00 11.9 3 Nordeste 10 Nordeste 0 -- -- 60
2017-11-16 20:00:00 13 0 Calma 3 Norte 0 -- -- 60
2017-11-16 19:00:00 15.1 0 Calma 4 Nordeste 0 -- -- 57
2017-11-16 18:00:00 20.5 0 Calma 7 Este 0 -- -- 36
2017-11-16 17:00:00 21.6 5 Sudeste 13 Nordeste 0 -- -- 29
2017-11-16 16:00:00 21.5 6 Sudeste 17 Este 0 -- -- 32
2017-11-16 15:00:00 20.7 9 Sudeste 17 Este 0 -- -- 37
2017-11-16 14:00:00 19 11 Este 19 Este 0 -- -- 45
2017-11-16 13:00:00 17.2 13 Este 21 Este 0 -- -- 51
2017-11-16 12:00:00 15.2 13 Este 22 Este 0 -- -- 52
2017-11-16 11:00:00 12.7 17 Este 26 Este 0 -- -- 57
2017-11-16 10:00:00 9.5 12 Este 19 Este 0 -- -- 74
2017-11-16 09:00:00 6.6 6 Este 13 Este 0 -- -- 87
2017-11-16 08:00:00 5.2 8 Este 13 Este 0 -- -- 89
2017-11-16 07:00:00 5.2 8 Este 11 Este 0 -- -- 88
2017-11-16 06:00:00 5.8 8 Este 10 Este 0 -- -- 88
2017-11-16 05:00:00 6 5 Este 12 Este 0 -- -- 86
2017-11-16 04:00:00 6.2 7 Este 12 Este 0 -- -- 85
2017-11-16 03:00:00 7.1 8 Este 11 Este 0 -- -- 83
2017-11-16 02:00:00 7.9 7 Este 10 Nordeste 0 -- -- 83
2017-11-16 01:00:00 8.4 6 Nordeste 10 Nordeste 0 -- -- 80
2017-11-16 00:00:00 8.9 3 Este 5 Este 0 -- -- 77
2017-11-15 23:00:00 9.5 6 Este 7 Este 0 -- -- 75
2017-11-15 22:00:00 10.6 4 Nordeste 6 Nordeste 0 -- -- 71
2017-11-15 21:00:00 11.9 4 Nordeste 6 Nordeste 0 -- -- 68
2017-11-15 20:00:00 12.7 3 Nordeste 9 Este 0 -- -- 63
2017-11-15 19:00:00 14.7 7 Este 9 Este 0 -- -- 57
2017-11-15 18:00:00 18.5 6 Este 12 Este 0 -- -- 46
2017-11-15 17:00:00 20.1 7 Este 16 Este 0 -- -- 40
2017-11-15 16:00:00 20.3 6 Este 16 Este 0 -- -- 40
2017-11-15 15:00:00 20 7 Nordeste 17 Este 0 -- -- 41
2017-11-15 14:00:00 18.6 11 Este 19 Este 0 -- -- 41
2017-11-15 13:00:00 16.9 13 Este 25 Este 0 -- -- 42
2017-11-15 12:00:00 15.1 17 Este 28 Este 0 -- -- 45
2017-11-15 11:00:00 12.9 19 Este 27 Este 0 -- -- 48
2017-11-15 10:00:00 10.4 13 Este 24 Este 0 -- -- 55
2017-11-15 09:00:00 7.6 14 Este 22 Este 0 -- -- 63
2017-11-15 08:00:00 6.7 12 Este 24 Este 0 -- -- 65
2017-11-15 07:00:00 7.6 16 Este 27 Este 0 -- -- 61
2017-11-15 06:00:00 7.5 14 Este 27 Este 0 -- -- 62
2017-11-15 05:00:00 7.4 16 Este 26 Este 0 -- -- 63
2017-11-15 04:00:00 7 11 Este 17 Este 0 -- -- 66
2017-11-15 03:00:00 6.6 8 Este 16 Este 0 -- -- 68
2017-11-15 02:00:00 6.6 10 Este 14 Este 0 -- -- 68
2017-11-15 01:00:00 7.2 8 Este 13 Este 0 -- -- 65
2017-11-15 00:00:00 7.2 4 Este 9 Nordeste 0 -- -- 67